Terminal Aerodrome Forecast
Issued by NWS

Home | Current Version | Previous Version | Text Only | Print | Product List | Glossary On
Versions: 1 2 3 4 5 6 7 8 9 10 11 12 13 14
973
FTUS43 KFGF 251136
TAFBJI
TAF
KBJI 251136Z 2512/2612 26008KT P6SM BKN025
     FM251400 27011KT P6SM BKN015
     FM251700 28013KT P6SM OVC020
     FM251900 29013KT P6SM BKN035
     FM260000 30009KT P6SM BKN050
     FM260200 28005KT P6SM BKN060
     FM260400 27004KT P6SM SCT200=

USA.gov is the U.S. government's official web portal to all federal, state and local government web resources and services.